sensor_id;sensor_type;location;lat;lon;timestamp;P1;durP1;ratioP1;P2;durP2;ratioP2
16407;SDS011;8313;49.894;8.084;2022-09-03T00:01:48;2.23;;;1.80;;
16407;SDS011;8313;49.894;8.084;2022-09-03T00:04:35;1.90;;;1.80;;
16407;SDS011;8313;49.894;8.084;2022-09-03T00:07:10;1.90;;;1.80;;
16407;SDS011;8313;49.894;8.084;2022-09-03T00:09:45;2.00;;;1.90;;
16407;SDS011;8313;49.894;8.084;2022-09-03T00:12:15;2.73;;;2.10;;
16407;SDS011;8313;49.894;8.084;2022-09-03T00:14:57;2.93;;;2.00;;
16407;SDS011;8313;49.894;8.084;2022-09-03T00:17:29;1.77;;;1.67;;
16407;SDS011;8313;49.894;8.084;2022-09-03T00:20:02;1.50;;;1.40;;
16407;SDS011;8313;49.894;8.084;2022-09-03T00:22:36;2.13;;;1.77;;
16407;SDS011;8313;49.894;8.084;2022-09-03T00:25:33;2.40;;;2.20;;
16407;SDS011;8313;49.894;8.084;2022-09-03T00:28:06;1.97;;;1.77;;
16407;SDS011;8313;49.894;8.084;2022-09-03T00:30:42;3.07;;;1.80;;
16407;SDS011;8313;49.894;8.084;2022-09-03T00:33:18;1.77;;;1.67;;
16407;SDS011;8313;49.894;8.084;2022-09-03T00:36:09;2.17;;;1.63;;
16407;SDS011;8313;49.894;8.084;2022-09-03T00:38:40;1.70;;;1.60;;
16407;SDS011;8313;49.894;8.084;2022-09-03T00:57:13;1.87;;;1.77;;
16407;SDS011;8313;49.894;8.084;2022-09-03T01:00:03;1.87;;;1.77;;
16407;SDS011;8313;49.894;8.084;2022-09-03T01:22:48;1.60;;;1.50;;
16407;SDS011;8313;49.894;8.084;2022-09-03T01:30:45;1.60;;;1.50;;
16407;SDS011;8313;49.894;8.084;2022-09-03T01:35:57;2.20;;;2.10;;
16407;SDS011;8313;49.894;8.084;2022-09-03T01:38:33;2.03;;;1.93;;
16407;SDS011;8313;49.894;8.084;2022-09-03T01:46:49;3.40;;;1.87;;
16407;SDS011;8313;49.894;8.084;2022-09-03T01:49:40;2.00;;;1.90;;
16407;SDS011;8313;49.894;8.084;2022-09-03T01:55:46;4.60;;;1.90;;
16407;SDS011;8313;49.894;8.084;2022-09-03T01:58:43;1.90;;;1.80;;
16407;SDS011;8313;49.894;8.084;2022-09-03T02:01:44;2.10;;;1.97;;
16407;SDS011;8313;49.894;8.084;2022-09-03T02:04:20;2.00;;;1.90;;
16407;SDS011;8313;49.894;8.084;2022-09-03T02:06:52;1.90;;;1.80;;
16407;SDS011;8313;49.894;8.084;2022-09-03T02:09:21;2.30;;;2.10;;
16407;SDS011;8313;49.894;8.084;2022-09-03T02:11:53;3.30;;;1.90;;
16407;SDS011;8313;49.894;8.084;2022-09-03T02:14:25;1.87;;;1.77;;
16407;SDS011;8313;49.894;8.084;2022-09-03T02:16:52;1.90;;;1.80;;
16407;SDS011;8313;49.894;8.084;2022-09-03T02:19:19;2.03;;;1.83;;
16407;SDS011;8313;49.894;8.084;2022-09-03T02:21:52;1.70;;;1.60;;
16407;SDS011;8313;49.894;8.084;2022-09-03T02:24:20;2.73;;;1.80;;
16407;SDS011;8313;49.894;8.084;2022-09-03T02:26:46;1.60;;;1.50;;
16407;SDS011;8313;49.894;8.084;2022-09-03T02:29:12;2.17;;;2.07;;
16407;SDS011;8313;49.894;8.084;2022-09-03T02:31:39;2.07;;;1.70;;
16407;SDS011;8313;49.894;8.084;2022-09-03T02:34:05;2.10;;;2.00;;
16407;SDS011;8313;49.894;8.084;2022-09-03T02:36:32;4.33;;;1.90;;
16407;SDS011;8313;49.894;8.084;2022-09-03T02:39:00;2.20;;;2.00;;
16407;SDS011;8313;49.894;8.084;2022-09-03T02:41:25;1.90;;;1.80;;
16407;SDS011;8313;49.894;8.084;2022-09-03T02:46:40;1.77;;;1.67;;
16407;SDS011;8313;49.894;8.084;2022-09-03T02:49:23;2.10;;;2.00;;
16407;SDS011;8313;49.894;8.084;2022-09-03T02:51:49;1.73;;;1.63;;
16407;SDS011;8313;49.894;8.084;2022-09-03T02:54:15;2.10;;;2.00;;
16407;SDS011;8313;49.894;8.084;2022-09-03T02:56:40;2.40;;;1.90;;
16407;SDS011;8313;49.894;8.084;2022-09-03T02:59:07;1.70;;;1.60;;
16407;SDS011;8313;49.894;8.084;2022-09-03T03:01:34;1.90;;;1.80;;
16407;SDS011;8313;49.894;8.084;2022-09-03T03:04:01;2.20;;;2.00;;
16407;SDS011;8313;49.894;8.084;2022-09-03T03:06:27;2.03;;;1.77;;
16407;SDS011;8313;49.894;8.084;2022-09-03T03:08:53;2.67;;;1.80;;
16407;SDS011;8313;49.894;8.084;2022-09-03T03:11:20;2.10;;;1.90;;
16407;SDS011;8313;49.894;8.084;2022-09-03T03:13:47;2.53;;;2.33;;
16407;SDS011;8313;49.894;8.084;2022-09-03T03:16:13;1.77;;;1.67;;
16407;SDS011;8313;49.894;8.084;2022-09-03T03:18:40;1.77;;;1.67;;
16407;SDS011;8313;49.894;8.084;2022-09-03T03:21:10;1.60;;;1.50;;
16407;SDS011;8313;49.894;8.084;2022-09-03T03:23:37;2.00;;;1.90;;
16407;SDS011;8313;49.894;8.084;2022-09-03T03:26:04;2.10;;;1.90;;
16407;SDS011;8313;49.894;8.084;2022-09-03T03:28:33;2.00;;;1.60;;
16407;SDS011;8313;49.894;8.084;2022-09-03T03:31:09;2.57;;;2.10;;
16407;SDS011;8313;49.894;8.084;2022-09-03T03:33:37;2.27;;;2.17;;
16407;SDS011;8313;49.894;8.084;2022-09-03T03:36:04;1.77;;;1.67;;
16407;SDS011;8313;49.894;8.084;2022-09-03T03:38:31;4.20;;;1.73;;
16407;SDS011;8313;49.894;8.084;2022-09-03T03:40:57;1.93;;;1.83;;
16407;SDS011;8313;49.894;8.084;2022-09-03T03:43:23;1.70;;;1.60;;
16407;SDS011;8313;49.894;8.084;2022-09-03T03:45:56;1.97;;;1.60;;
16407;SDS011;8313;49.894;8.084;2022-09-03T03:48:24;1.80;;;1.70;;
16407;SDS011;8313;49.894;8.084;2022-09-03T03:50:50;1.87;;;1.77;;
16407;SDS011;8313;49.894;8.084;2022-09-03T03:53:16;1.83;;;1.73;;
16407;SDS011;8313;49.894;8.084;2022-09-03T03:55:42;2.03;;;1.83;;
16407;SDS011;8313;49.894;8.084;2022-09-03T03:58:08;1.63;;;1.53;;
16407;SDS011;8313;49.894;8.084;2022-09-03T04:00:33;2.03;;;1.80;;
16407;SDS011;8313;49.894;8.084;2022-09-03T04:03:01;3.10;;;1.97;;
16407;SDS011;8313;49.894;8.084;2022-09-03T04:05:27;1.90;;;1.77;;
16407;SDS011;8313;49.894;8.084;2022-09-03T04:07:53;1.83;;;1.73;;
16407;SDS011;8313;49.894;8.084;2022-09-03T04:10:18;2.10;;;2.00;;
16407;SDS011;8313;49.894;8.084;2022-09-03T04:12:44;4.40;;;2.40;;
16407;SDS011;8313;49.894;8.084;2022-09-03T04:15:10;1.87;;;1.77;;
16407;SDS011;8313;49.894;8.084;2022-09-03T04:17:36;2.20;;;2.10;;
16407;SDS011;8313;49.894;8.084;2022-09-03T04:20:01;2.40;;;2.20;;
16407;SDS011;8313;49.894;8.084;2022-09-03T04:22:28;2.93;;;1.87;;
16407;SDS011;8313;49.894;8.084;2022-09-03T04:24:54;1.80;;;1.70;;
16407;SDS011;8313;49.894;8.084;2022-09-03T04:27:19;2.37;;;2.17;;
16407;SDS011;8313;49.894;8.084;2022-09-03T04:29:45;5.20;;;2.10;;
16407;SDS011;8313;49.894;8.084;2022-09-03T04:32:11;2.50;;;1.90;;
16407;SDS011;8313;49.894;8.084;2022-09-03T04:34:55;1.80;;;1.70;;
16407;SDS011;8313;49.894;8.084;2022-09-03T04:37:21;1.83;;;1.73;;
16407;SDS011;8313;49.894;8.084;2022-09-03T04:39:47;1.90;;;1.70;;
16407;SDS011;8313;49.894;8.084;2022-09-03T04:42:12;2.33;;;2.23;;
16407;SDS011;8313;49.894;8.084;2022-09-03T04:44:38;4.43;;;2.37;;
16407;SDS011;8313;49.894;8.084;2022-09-03T04:47:05;3.00;;;1.87;;
16407;SDS011;8313;49.894;8.084;2022-09-03T04:49:30;1.67;;;1.57;;
16407;SDS011;8313;49.894;8.084;2022-09-03T04:51:56;1.97;;;1.80;;
16407;SDS011;8313;49.894;8.084;2022-09-03T04:54:22;2.30;;;1.77;;
16407;SDS011;8313;49.894;8.084;2022-09-03T04:56:47;2.13;;;2.03;;
16407;SDS011;8313;49.894;8.084;2022-09-03T04:59:13;1.87;;;1.77;;
16407;SDS011;8313;49.894;8.084;2022-09-03T05:01:39;2.63;;;2.07;;
16407;SDS011;8313;49.894;8.084;2022-09-03T05:04:07;2.10;;;2.00;;
16407;SDS011;8313;49.894;8.084;2022-09-03T05:06:33;2.30;;;2.20;;
16407;SDS011;8313;49.894;8.084;2022-09-03T05:09:01;2.10;;;1.90;;
16407;SDS011;8313;49.894;8.084;2022-09-03T05:11:27;2.10;;;2.00;;
16407;SDS011;8313;49.894;8.084;2022-09-03T05:13:55;4.53;;;2.10;;
16407;SDS011;8313;49.894;8.084;2022-09-03T05:16:23;2.20;;;2.10;;
16407;SDS011;8313;49.894;8.084;2022-09-03T05:18:53;2.27;;;2.07;;
16407;SDS011;8313;49.894;8.084;2022-09-03T05:21:20;1.93;;;1.83;;
16407;SDS011;8313;49.894;8.084;2022-09-03T05:23:47;1.70;;;1.60;;
16407;SDS011;8313;49.894;8.084;2022-09-03T05:26:15;2.40;;;2.23;;
16407;SDS011;8313;49.894;8.084;2022-09-03T05:28:43;3.67;;;1.97;;
16407;SDS011;8313;49.894;8.084;2022-09-03T05:31:10;2.83;;;2.30;;
16407;SDS011;8313;49.894;8.084;2022-09-03T05:33:42;2.47;;;2.27;;
16407;SDS011;8313;49.894;8.084;2022-09-03T05:36:13;2.90;;;2.23;;
16407;SDS011;8313;49.894;8.084;2022-09-03T05:38:43;2.70;;;2.50;;
16407;SDS011;8313;49.894;8.084;2022-09-03T05:41:11;2.57;;;2.33;;
16407;SDS011;8313;49.894;8.084;2022-09-03T05:43:39;3.93;;;2.37;;
16407;SDS011;8313;49.894;8.084;2022-09-03T05:46:12;2.37;;;2.17;;
16407;SDS011;8313;49.894;8.084;2022-09-03T05:48:41;2.10;;;2.00;;
16407;SDS011;8313;49.894;8.084;2022-09-03T05:53:35;2.97;;;2.20;;
16407;SDS011;8313;49.894;8.084;2022-09-03T05:56:03;4.13;;;2.67;;
16407;SDS011;8313;49.894;8.084;2022-09-03T05:58:31;2.20;;;2.10;;
16407;SDS011;8313;49.894;8.084;2022-09-03T06:01:36;2.10;;;2.00;;
16407;SDS011;8313;49.894;8.084;2022-09-03T06:06:23;2.67;;;2.47;;
16407;SDS011;8313;49.894;8.084;2022-09-03T06:08:55;2.77;;;2.57;;
16407;SDS011;8313;49.894;8.084;2022-09-03T06:11:22;1.90;;;1.80;;
16407;SDS011;8313;49.894;8.084;2022-09-03T06:13:52;2.20;;;2.10;;
16407;SDS011;8313;49.894;8.084;2022-09-03T06:16:18;5.40;;;2.30;;
16407;SDS011;8313;49.894;8.084;2022-09-03T06:18:46;2.50;;;2.30;;
16407;SDS011;8313;49.894;8.084;2022-09-03T06:21:11;2.40;;;2.20;;
16407;SDS011;8313;49.894;8.084;2022-09-03T06:23:39;2.60;;;2.40;;
16407;SDS011;8313;49.894;8.084;2022-09-03T06:26:06;2.93;;;2.30;;
16407;SDS011;8313;49.894;8.084;2022-09-03T06:28:37;2.43;;;2.23;;
16407;SDS011;8313;49.894;8.084;2022-09-03T06:31:08;2.60;;;2.10;;
16407;SDS011;8313;49.894;8.084;2022-09-03T06:33:38;2.20;;;2.10;;
16407;SDS011;8313;49.894;8.084;2022-09-03T06:36:07;2.20;;;2.10;;
16407;SDS011;8313;49.894;8.084;2022-09-03T06:38:38;2.23;;;1.90;;
16407;SDS011;8313;49.894;8.084;2022-09-03T06:41:11;2.83;;;2.30;;
16407;SDS011;8313;49.894;8.084;2022-09-03T06:43:51;2.73;;;2.53;;
16407;SDS011;8313;49.894;8.084;2022-09-03T06:46:39;3.13;;;2.40;;
16407;SDS011;8313;49.894;8.084;2022-09-03T06:49:08;4.50;;;2.60;;
16407;SDS011;8313;49.894;8.084;2022-09-03T06:51:35;3.13;;;2.53;;
16407;SDS011;8313;49.894;8.084;2022-09-03T06:54:03;2.23;;;2.00;;
16407;SDS011;8313;49.894;8.084;2022-09-03T06:56:30;2.83;;;2.37;;
16407;SDS011;8313;49.894;8.084;2022-09-03T06:58:57;2.73;;;2.53;;
16407;SDS011;8313;49.894;8.084;2022-09-03T07:01:25;2.93;;;2.63;;
16407;SDS011;8313;49.894;8.084;2022-09-03T07:03:55;2.60;;;2.40;;
16407;SDS011;8313;49.894;8.084;2022-09-03T07:06:23;2.03;;;1.90;;
16407;SDS011;8313;49.894;8.084;2022-09-03T07:08:51;2.70;;;2.50;;
16407;SDS011;8313;49.894;8.084;2022-09-03T07:11:19;2.70;;;2.57;;
16407;SDS011;8313;49.894;8.084;2022-09-03T07:13:50;2.80;;;2.20;;
16407;SDS011;8313;49.894;8.084;2022-09-03T07:16:21;2.37;;;2.20;;
16407;SDS011;8313;49.894;8.084;2022-09-03T07:18:49;2.63;;;2.40;;
16407;SDS011;8313;49.894;8.084;2022-09-03T07:21:17;3.40;;;2.60;;
16407;SDS011;8313;49.894;8.084;2022-09-03T07:23:44;2.40;;;2.20;;
16407;SDS011;8313;49.894;8.084;2022-09-03T07:26:12;2.70;;;2.50;;
16407;SDS011;8313;49.894;8.084;2022-09-03T07:28:41;3.00;;;2.70;;
16407;SDS011;8313;49.894;8.084;2022-09-03T07:33:33;2.67;;;2.50;;
16407;SDS011;8313;49.894;8.084;2022-09-03T07:36:34;2.83;;;2.63;;
16407;SDS011;8313;49.894;8.084;2022-09-03T07:38:56;2.60;;;2.40;;
16407;SDS011;8313;49.894;8.084;2022-09-03T07:41:23;4.33;;;2.43;;
16407;SDS011;8313;49.894;8.084;2022-09-03T07:43:51;3.23;;;2.50;;
16407;SDS011;8313;49.894;8.084;2022-09-03T07:46:18;2.70;;;2.60;;
16407;SDS011;8313;49.894;8.084;2022-09-03T07:48:52;2.60;;;2.40;;
16407;SDS011;8313;49.894;8.084;2022-09-03T07:51:21;2.70;;;2.50;;
16407;SDS011;8313;49.894;8.084;2022-09-03T07:53:51;9.70;;;4.10;;
16407;SDS011;8313;49.894;8.084;2022-09-03T07:56:18;2.77;;;2.57;;
16407;SDS011;8313;49.894;8.084;2022-09-03T07:58:45;2.90;;;2.70;;
16407;SDS011;8313;49.894;8.084;2022-09-03T08:01:12;3.30;;;2.53;;
16407;SDS011;8313;49.894;8.084;2022-09-03T08:03:43;3.10;;;2.90;;
16407;SDS011;8313;49.894;8.084;2022-09-03T08:06:13;3.07;;;2.87;;
16407;SDS011;8313;49.894;8.084;2022-09-03T08:08:40;2.90;;;2.70;;
16407;SDS011;8313;49.894;8.084;2022-09-03T08:11:12;2.73;;;2.53;;
16407;SDS011;8313;49.894;8.084;2022-09-03T08:13:52;2.87;;;2.60;;
16407;SDS011;8313;49.894;8.084;2022-09-03T08:16:21;2.70;;;2.50;;
16407;SDS011;8313;49.894;8.084;2022-09-03T08:18:48;2.67;;;2.47;;
16407;SDS011;8313;49.894;8.084;2022-09-03T08:21:16;3.30;;;2.40;;
16407;SDS011;8313;49.894;8.084;2022-09-03T08:23:45;2.40;;;2.30;;
16407;SDS011;8313;49.894;8.084;2022-09-03T08:26:12;2.97;;;2.77;;
16407;SDS011;8313;49.894;8.084;2022-09-03T08:28:38;2.83;;;2.60;;
16407;SDS011;8313;49.894;8.084;2022-09-03T08:31:09;3.83;;;2.53;;
16407;SDS011;8313;49.894;8.084;2022-09-03T08:33:36;2.50;;;2.30;;
16407;SDS011;8313;49.894;8.084;2022-09-03T08:36:03;2.50;;;2.30;;
16407;SDS011;8313;49.894;8.084;2022-09-03T08:38:34;2.57;;;2.37;;
16407;SDS011;8313;49.894;8.084;2022-09-03T08:41:08;2.83;;;2.50;;
16407;SDS011;8313;49.894;8.084;2022-09-03T08:43:52;2.87;;;2.67;;
16407;SDS011;8313;49.894;8.084;2022-09-03T08:46:58;4.90;;;2.73;;
16407;SDS011;8313;49.894;8.084;2022-09-03T08:54:51;2.87;;;2.67;;
16407;SDS011;8313;49.894;8.084;2022-09-03T08:57:25;3.20;;;2.83;;
16407;SDS011;8313;49.894;8.084;2022-09-03T08:59:52;3.23;;;2.57;;
16407;SDS011;8313;49.894;8.084;2022-09-03T09:02:25;3.37;;;3.07;;
16407;SDS011;8313;49.894;8.084;2022-09-03T09:05:04;2.80;;;2.60;;
16407;SDS011;8313;49.894;8.084;2022-09-03T09:07:58;2.60;;;2.40;;
16407;SDS011;8313;49.894;8.084;2022-09-03T09:10:43;2.83;;;2.63;;
16407;SDS011;8313;49.894;8.084;2022-09-03T09:15:59;3.33;;;3.03;;
16407;SDS011;8313;49.894;8.084;2022-09-03T09:21:42;3.03;;;2.83;;
16407;SDS011;8313;49.894;8.084;2022-09-03T09:24:23;4.80;;;3.30;;
16407;SDS011;8313;49.894;8.084;2022-09-03T09:26:57;2.70;;;2.50;;
16407;SDS011;8313;49.894;8.084;2022-09-03T09:29:29;3.20;;;3.00;;
16407;SDS011;8313;49.894;8.084;2022-09-03T09:31:59;3.23;;;3.03;;
16407;SDS011;8313;49.894;8.084;2022-09-03T09:34:25;3.60;;;3.30;;
16407;SDS011;8313;49.894;8.084;2022-09-03T09:36:52;3.10;;;2.90;;
16407;SDS011;8313;49.894;8.084;2022-09-03T09:39:20;2.83;;;2.63;;
16407;SDS011;8313;49.894;8.084;2022-09-03T09:41:59;3.27;;;3.00;;
16407;SDS011;8313;49.894;8.084;2022-09-03T09:44:39;2.90;;;2.70;;
16407;SDS011;8313;49.894;8.084;2022-09-03T09:52:10;3.00;;;2.80;;
16407;SDS011;8313;49.894;8.084;2022-09-03T09:54:38;2.60;;;2.40;;
16407;SDS011;8313;49.894;8.084;2022-09-03T09:57:07;4.67;;;3.37;;
16407;SDS011;8313;49.894;8.084;2022-09-03T09:59:41;3.43;;;3.23;;
16407;SDS011;8313;49.894;8.084;2022-09-03T10:02:10;4.10;;;3.80;;
16407;SDS011;8313;49.894;8.084;2022-09-03T10:04:57;3.23;;;3.03;;
16407;SDS011;8313;49.894;8.084;2022-09-03T10:07:35;3.63;;;3.33;;
16407;SDS011;8313;49.894;8.084;2022-09-03T10:10:15;4.00;;;3.70;;
16407;SDS011;8313;49.894;8.084;2022-09-03T10:12:50;4.60;;;4.20;;
16407;SDS011;8313;49.894;8.084;2022-09-03T10:21:12;3.93;;;3.53;;
16407;SDS011;8313;49.894;8.084;2022-09-03T10:23:52;4.00;;;3.57;;
16407;SDS011;8313;49.894;8.084;2022-09-03T10:26:25;5.50;;;4.20;;
16407;SDS011;8313;49.894;8.084;2022-09-03T10:28:56;3.80;;;3.50;;
16407;SDS011;8313;49.894;8.084;2022-09-03T10:34:06;4.87;;;4.43;;
16407;SDS011;8313;49.894;8.084;2022-09-03T10:47:34;5.63;;;4.57;;
16407;SDS011;8313;49.894;8.084;2022-09-03T10:50:08;4.47;;;4.07;;
16407;SDS011;8313;49.894;8.084;2022-09-03T10:55:26;4.93;;;4.43;;
16407;SDS011;8313;49.894;8.084;2022-09-03T11:06:33;4.30;;;4.00;;
16407;SDS011;8313;49.894;8.084;2022-09-03T11:09:12;5.20;;;4.33;;
16407;SDS011;8313;49.894;8.084;2022-09-03T11:11:53;3.60;;;3.30;;
16407;SDS011;8313;49.894;8.084;2022-09-03T11:15:08;4.50;;;3.40;;
16407;SDS011;8313;49.894;8.084;2022-09-03T11:17:26;4.33;;;3.50;;
16407;SDS011;8313;49.894;8.084;2022-09-03T11:22:39;4.23;;;3.93;;
16407;SDS011;8313;49.894;8.084;2022-09-03T11:25:07;4.90;;;4.50;;
16407;SDS011;8313;49.894;8.084;2022-09-03T11:30:14;4.93;;;4.63;;
16407;SDS011;8313;49.894;8.084;2022-09-03T11:32:49;5.40;;;4.90;;
16407;SDS011;8313;49.894;8.084;2022-09-03T11:35:36;4.80;;;4.40;;
16407;SDS011;8313;49.894;8.084;2022-09-03T11:40:56;4.87;;;4.47;;
16407;SDS011;8313;49.894;8.084;2022-09-03T11:43:29;5.60;;;5.20;;
16407;SDS011;8313;49.894;8.084;2022-09-03T11:48:47;5.07;;;4.67;;
16407;SDS011;8313;49.894;8.084;2022-09-03T11:51:20;6.80;;;5.07;;
16407;SDS011;8313;49.894;8.084;2022-09-03T11:54:41;4.67;;;4.37;;
16407;SDS011;8313;49.894;8.084;2022-09-03T11:56:47;7.03;;;5.40;;
16407;SDS011;8313;49.894;8.084;2022-09-03T11:59:24;5.03;;;4.53;;
16407;SDS011;8313;49.894;8.084;2022-09-03T12:02:01;5.03;;;4.70;;
16407;SDS011;8313;49.894;8.084;2022-09-03T12:04:44;4.83;;;4.23;;
16407;SDS011;8313;49.894;8.084;2022-09-03T12:18:04;11.50;;;5.97;;
16407;SDS011;8313;49.894;8.084;2022-09-03T12:20:58;6.60;;;6.10;;
16407;SDS011;8313;49.894;8.084;2022-09-03T12:26:06;6.27;;;5.67;;
16407;SDS011;8313;49.894;8.084;2022-09-03T12:28:34;6.43;;;5.97;;
16407;SDS011;8313;49.894;8.084;2022-09-03T12:31:06;5.90;;;5.40;;
16407;SDS011;8313;49.894;8.084;2022-09-03T12:33:41;5.33;;;4.93;;
16407;SDS011;8313;49.894;8.084;2022-09-03T12:36:07;6.43;;;5.93;;
16407;SDS011;8313;49.894;8.084;2022-09-03T12:38:33;5.90;;;5.40;;
16407;SDS011;8313;49.894;8.084;2022-09-03T12:40:59;5.87;;;5.27;;
16407;SDS011;8313;49.894;8.084;2022-09-03T12:43:26;5.20;;;4.80;;
16407;SDS011;8313;49.894;8.084;2022-09-03T12:45:53;5.87;;;5.37;;
16407;SDS011;8313;49.894;8.084;2022-09-03T12:48:19;5.17;;;4.77;;
16407;SDS011;8313;49.894;8.084;2022-09-03T12:50:46;5.33;;;4.93;;
16407;SDS011;8313;49.894;8.084;2022-09-03T12:53:19;5.23;;;4.73;;
16407;SDS011;8313;49.894;8.084;2022-09-03T12:55:52;4.70;;;4.40;;
16407;SDS011;8313;49.894;8.084;2022-09-03T12:58:30;5.27;;;4.77;;
16407;SDS011;8313;49.894;8.084;2022-09-03T13:01:07;5.43;;;4.93;;
16407;SDS011;8313;49.894;8.084;2022-09-03T13:06:14;5.50;;;5.00;;
16407;SDS011;8313;49.894;8.084;2022-09-03T13:11:20;5.50;;;5.00;;
16407;SDS011;8313;49.894;8.084;2022-09-03T13:14:21;4.60;;;4.30;;
16407;SDS011;8313;49.894;8.084;2022-09-03T13:27:25;5.27;;;4.97;;
16407;SDS011;8313;49.894;8.084;2022-09-03T13:30:12;5.03;;;4.60;;
16407;SDS011;8313;49.894;8.084;2022-09-03T13:35:36;4.53;;;4.17;;
16407;SDS011;8313;49.894;8.084;2022-09-03T13:40:57;4.07;;;3.77;;
16407;SDS011;8313;49.894;8.084;2022-09-03T13:43:54;4.10;;;3.80;;
16407;SDS011;8313;49.894;8.084;2022-09-03T13:46:24;4.20;;;3.90;;
16407;SDS011;8313;49.894;8.084;2022-09-03T13:49:09;4.40;;;4.10;;
16407;SDS011;8313;49.894;8.084;2022-09-03T13:52:07;3.33;;;3.13;;
16407;SDS011;8313;49.894;8.084;2022-09-03T13:55:53;3.23;;;3.03;;
16407;SDS011;8313;49.894;8.084;2022-09-03T14:00:46;3.33;;;3.13;;
16407;SDS011;8313;49.894;8.084;2022-09-03T14:12:04;3.50;;;3.30;;
16407;SDS011;8313;49.894;8.084;2022-09-03T14:14:57;3.27;;;3.07;;
16407;SDS011;8313;49.894;8.084;2022-09-03T14:23:04;3.60;;;3.30;;
16407;SDS011;8313;49.894;8.084;2022-09-03T14:25:50;3.67;;;3.27;;
16407;SDS011;8313;49.894;8.084;2022-09-03T14:28:26;4.10;;;3.67;;
16407;SDS011;8313;49.894;8.084;2022-09-03T14:36:43;3.57;;;3.27;;
16407;SDS011;8313;49.894;8.084;2022-09-03T14:44:30;3.43;;;2.93;;
16407;SDS011;8313;49.894;8.084;2022-09-03T15:01:00;2.60;;;2.40;;
16407;SDS011;8313;49.894;8.084;2022-09-03T15:09:19;2.83;;;2.53;;
16407;SDS011;8313;49.894;8.084;2022-09-03T15:20:10;2.67;;;2.47;;
16407;SDS011;8313;49.894;8.084;2022-09-03T15:36:59;2.50;;;2.40;;
16407;SDS011;8313;49.894;8.084;2022-09-03T15:39:34;2.80;;;2.60;;
16407;SDS011;8313;49.894;8.084;2022-09-03T15:42:09;2.13;;;2.03;;
16407;SDS011;8313;49.894;8.084;2022-09-03T15:44:50;2.60;;;2.40;;
16407;SDS011;8313;49.894;8.084;2022-09-03T15:53:14;1.40;;;1.30;;
16407;SDS011;8313;49.894;8.084;2022-09-03T15:56:01;1.20;;;1.10;;
16407;SDS011;8313;49.894;8.084;2022-09-03T15:58:59;1.40;;;1.00;;
16407;SDS011;8313;49.894;8.084;2022-09-03T16:07:16;3.10;;;1.30;;
16407;SDS011;8313;49.894;8.084;2022-09-03T16:15:32;1.77;;;1.23;;
16407;SDS011;8313;49.894;8.084;2022-09-03T16:20:57;1.23;;;1.13;;
16407;SDS011;8313;49.894;8.084;2022-09-03T16:29:12;3.43;;;1.67;;
16407;SDS011;8313;49.894;8.084;2022-09-03T16:57:00;2.13;;;1.37;;
16407;SDS011;8313;49.894;8.084;2022-09-03T17:05:07;1.10;;;1.03;;
16407;SDS011;8313;49.894;8.084;2022-09-03T17:13:48;1.80;;;1.70;;
16407;SDS011;8313;49.894;8.084;2022-09-03T17:16:23;2.27;;;2.17;;
16407;SDS011;8313;49.894;8.084;2022-09-03T17:25:07;1.60;;;1.50;;
16407;SDS011;8313;49.894;8.084;2022-09-03T17:27:54;1.53;;;1.43;;
16407;SDS011;8313;49.894;8.084;2022-09-03T17:36:23;0.93;;;0.90;;
16407;SDS011;8313;49.894;8.084;2022-09-03T17:41:40;1.10;;;1.10;;
16407;SDS011;8313;49.894;8.084;2022-09-03T17:47:11;2.30;;;1.90;;
16407;SDS011;8313;49.894;8.084;2022-09-03T17:49:49;4.63;;;4.17;;
16407;SDS011;8313;49.894;8.084;2022-09-03T17:52:37;4.43;;;3.27;;
16407;SDS011;8313;49.894;8.084;2022-09-03T18:00:39;6.23;;;5.63;;
16407;SDS011;8313;49.894;8.084;2022-09-03T18:08:59;1.07;;;1.03;;
16407;SDS011;8313;49.894;8.084;2022-09-03T18:11:33;1.40;;;1.30;;
16407;SDS011;8313;49.894;8.084;2022-09-03T18:16:48;2.00;;;1.27;;
16407;SDS011;8313;49.894;8.084;2022-09-03T18:19:48;1.07;;;1.03;;
16407;SDS011;8313;49.894;8.084;2022-09-03T18:22:47;1.30;;;1.20;;
16407;SDS011;8313;49.894;8.084;2022-09-03T18:25:34;1.30;;;1.13;;
16407;SDS011;8313;49.894;8.084;2022-09-03T18:28:20;1.27;;;0.90;;
16407;SDS011;8313;49.894;8.084;2022-09-03T18:31:23;1.67;;;1.53;;
16407;SDS011;8313;49.894;8.084;2022-09-03T18:34:07;2.10;;;1.60;;
16407;SDS011;8313;49.894;8.084;2022-09-03T18:36:52;3.43;;;2.20;;
16407;SDS011;8313;49.894;8.084;2022-09-03T18:39:41;1.77;;;1.60;;
16407;SDS011;8313;49.894;8.084;2022-09-03T18:42:31;2.07;;;1.57;;
16407;SDS011;8313;49.894;8.084;2022-09-03T18:48:24;1.70;;;1.20;;
16407;SDS011;8313;49.894;8.084;2022-09-03T18:56:50;1.30;;;1.20;;
16407;SDS011;8313;49.894;8.084;2022-09-03T19:15:12;2.33;;;2.10;;
16407;SDS011;8313;49.894;8.084;2022-09-03T19:24:30;1.23;;;1.13;;
16407;SDS011;8313;49.894;8.084;2022-09-03T19:30:06;1.20;;;1.10;;
16407;SDS011;8313;49.894;8.084;2022-09-03T19:33:01;1.57;;;1.37;;
16407;SDS011;8313;49.894;8.084;2022-09-03T19:52:05;1.60;;;1.17;;
16407;SDS011;8313;49.894;8.084;2022-09-03T19:54:52;1.00;;;1.00;;
16407;SDS011;8313;49.894;8.084;2022-09-03T19:57:38;1.50;;;1.40;;
16407;SDS011;8313;49.894;8.084;2022-09-03T20:00:24;1.27;;;1.17;;
16407;SDS011;8313;49.894;8.084;2022-09-03T20:03:10;1.90;;;1.37;;
16407;SDS011;8313;49.894;8.084;2022-09-03T20:05:57;2.03;;;1.53;;
16407;SDS011;8313;49.894;8.084;2022-09-03T20:08:44;1.60;;;1.50;;
16407;SDS011;8313;49.894;8.084;2022-09-03T20:11:29;1.47;;;1.10;;
16407;SDS011;8313;49.894;8.084;2022-09-03T20:13:55;2.40;;;2.10;;
16407;SDS011;8313;49.894;8.084;2022-09-03T20:22:14;1.30;;;1.30;;
16407;SDS011;8313;49.894;8.084;2022-09-03T20:25:03;2.40;;;1.23;;
16407;SDS011;8313;49.894;8.084;2022-09-03T20:30:26;1.20;;;1.10;;
16407;SDS011;8313;49.894;8.084;2022-09-03T20:52:15;17.17;;;11.63;;
16407;SDS011;8313;49.894;8.084;2022-09-03T21:00:15;10.97;;;9.37;;
16407;SDS011;8313;49.894;8.084;2022-09-03T21:10:46;3.17;;;2.77;;
16407;SDS011;8313;49.894;8.084;2022-09-03T21:13:24;2.77;;;2.57;;
16407;SDS011;8313;49.894;8.084;2022-09-03T21:16:18;3.40;;;3.10;;
16407;SDS011;8313;49.894;8.084;2022-09-03T21:19:05;2.53;;;2.20;;
16407;SDS011;8313;49.894;8.084;2022-09-03T21:24:27;5.20;;;3.93;;
16407;SDS011;8313;49.894;8.084;2022-09-03T21:26:59;6.40;;;5.57;;
16407;SDS011;8313;49.894;8.084;2022-09-03T21:29:33;6.77;;;6.07;;
16407;SDS011;8313;49.894;8.084;2022-09-03T21:34:49;10.87;;;8.87;;
16407;SDS011;8313;49.894;8.084;2022-09-03T21:37:21;10.60;;;7.80;;
16407;SDS011;8313;49.894;8.084;2022-09-03T21:39:55;7.37;;;6.60;;
16407;SDS011;8313;49.894;8.084;2022-09-03T21:42:42;8.83;;;5.90;;
16407;SDS011;8313;49.894;8.084;2022-09-03T21:48:17;5.93;;;4.77;;
16407;SDS011;8313;49.894;8.084;2022-09-03T21:50:53;7.37;;;4.57;;
16407;SDS011;8313;49.894;8.084;2022-09-03T22:04:48;3.57;;;2.40;;
16407;SDS011;8313;49.894;8.084;2022-09-03T22:12:53;3.80;;;2.17;;
16407;SDS011;8313;49.894;8.084;2022-09-03T22:15:33;1.70;;;1.60;;
16407;SDS011;8313;49.894;8.084;2022-09-03T22:20:40;1.87;;;1.50;;
16407;SDS011;8313;49.894;8.084;2022-09-03T22:23:13;2.47;;;1.40;;
16407;SDS011;8313;49.894;8.084;2022-09-03T22:28:29;4.00;;;1.73;;
16407;SDS011;8313;49.894;8.084;2022-09-03T22:33:27;1.83;;;1.50;;
16407;SDS011;8313;49.894;8.084;2022-09-03T22:36:05;2.47;;;1.60;;
16407;SDS011;8313;49.894;8.084;2022-09-03T22:38:50;4.17;;;1.30;;
16407;SDS011;8313;49.894;8.084;2022-09-03T22:44:38;1.40;;;1.30;;
16407;SDS011;8313;49.894;8.084;2022-09-03T22:52:18;3.83;;;1.80;;
16407;SDS011;8313;49.894;8.084;2022-09-03T22:57:47;2.67;;;1.77;;
16407;SDS011;8313;49.894;8.084;2022-09-03T23:00:27;5.43;;;1.60;;
16407;SDS011;8313;49.894;8.084;2022-09-03T23:03:01;2.23;;;1.60;;
16407;SDS011;8313;49.894;8.084;2022-09-03T23:05:34;2.17;;;1.73;;
16407;SDS011;8313;49.894;8.084;2022-09-03T23:08:13;2.13;;;1.30;;
16407;SDS011;8313;49.894;8.084;2022-09-03T23:11:29;1.73;;;1.63;;
16407;SDS011;8313;49.894;8.084;2022-09-03T23:13:39;1.70;;;1.60;;
16407;SDS011;8313;49.894;8.084;2022-09-03T23:16:16;2.20;;;1.60;;
16407;SDS011;8313;49.894;8.084;2022-09-03T23:19:12;2.40;;;1.70;;